Time;durP1;ratioP1;P1;durP2;ratioP2;P2;SDS_P1;SDS_P2;PMS_P1;PMS_P2;Temp;Humidity;BMP_temperature;BMP_pressure;BME280_temperature;BME280_humidity;BME280_pressure;Samples;Min_cycle;Max_cycle;Signal;HPM_P1;HPM_P2
2021/08/02 00:01:32;;;;;;;4.22;3.83;;;;;;;17.41;66.12;99996.75;4904544;28;98543;-63
2021/08/02 00:04:05;;;;;;;5.07;3.97;;;;;;;17.41;66.40;99987.78;4902805;28;108961;-63
2021/08/02 00:06:51;;;;;;;4.32;3.90;;;;;;;17.41;66.29;99995.97;4904343;28;98232;-67
2021/08/02 00:09:23;;;;;;;4.13;3.67;;;;;;;17.40;66.71;99986.16;4905102;28;103768;-63
2021/08/02 00:12:16;;;;;;;4.40;3.65;;;;;;;17.37;66.34;99990.34;4886971;28;98979;-67
2021/08/02 00:14:43;;;;;;;4.45;3.63;;;;;;;17.39;67.14;100000.91;4903448;28;98765;-66
2021/08/02 00:17:10;;;;;;;4.15;3.60;;;;;;;17.39;66.79;99993.53;4904183;28;97757;-67
2021/08/02 00:19:36;;;;;;;4.63;3.95;;;;;;;17.38;66.96;99997.41;4904300;28;97940;-63
2021/08/02 00:22:02;;;;;;;4.40;4.00;;;;;;;17.36;67.03;99999.63;4901660;28;109456;-63
2021/08/02 00:24:28;;;;;;;4.43;4.03;;;;;;;17.35;66.98;99995.31;4902675;28;98533;-63
2021/08/02 00:26:56;;;;;;;4.50;4.10;;;;;;;17.35;67.20;99994.50;4901684;28;117546;-67
2021/08/02 00:29:23;;;;;;;4.82;3.88;;;;;;;17.34;67.14;100003.81;4902894;28;98026;-67
2021/08/02 00:31:52;;;;;;;4.38;3.92;;;;;;;17.31;67.14;99997.09;4902205;28;98045;-63
2021/08/02 00:34:18;;;;;;;4.50;4.00;;;;;;;17.34;67.24;100009.28;4903925;28;98577;-63
2021/08/02 00:37:05;;;;;;;4.43;4.03;;;;;;;17.31;66.87;100009.91;4903666;28;117677;-67
2021/08/02 00:39:56;;;;;;;4.72;3.90;;;;;;;17.28;66.82;100011.34;4902801;28;98149;-67
2021/08/02 00:42:58;;;;;;;5.25;4.07;;;;;;;17.24;66.80;100017.75;4903902;28;98800;-67
2021/08/02 00:45:31;;;;;;;5.63;3.72;;;;;;;17.20;67.24;100014.88;4886243;28;98384;-67
2021/08/02 00:48:18;;;;;;;4.80;4.35;;;;;;;17.17;67.12;100019.06;4904158;28;98160;-63
2021/08/02 00:50:49;;;;;;;5.10;4.20;;;;;;;17.18;67.67;100023.38;4902126;28;97925;-63
2021/08/02 00:53:20;;;;;;;4.72;4.32;;;;;;;17.17;67.69;100021.78;4903214;28;99000;-63
2021/08/02 00:55:58;;;;;;;5.00;4.50;;;;;;;17.15;67.46;100028.66;4903450;28;98722;-67
2021/08/02 00:58:28;;;;;;;4.20;3.80;;;;;;;17.12;67.61;100026.59;4904037;28;98441;-63
2021/08/02 01:00:54;;;;;;;4.90;4.50;;;;;;;17.10;67.74;100037.81;4903051;28;108631;-67
2021/08/02 01:03:20;;;;;;;5.10;3.80;;;;;;;17.09;67.83;100035.38;4885678;28;97994;-67
2021/08/02 01:05:49;;;;;;;4.70;4.10;;;;;;;17.08;67.65;100041.97;4885766;28;98479;-64
2021/08/02 01:08:24;;;;;;;4.55;4.15;;;;;;;17.08;67.81;100036.50;4903053;28;118712;-68
2021/08/02 01:10:56;;;;;;;4.75;3.97;;;;;;;17.06;67.69;100034.13;4886601;28;100040;-63
2021/08/02 01:13:24;;;;;;;4.88;4.38;;;;;;;17.06;67.67;100030.59;4901326;28;99350;-63
2021/08/02 01:15:54;;;;;;;4.50;3.90;;;;;;;17.05;67.94;100032.50;4900825;28;98268;-67
2021/08/02 01:18:22;;;;;;;4.60;4.20;;;;;;;17.05;67.71;100037.16;4901675;28;98369;-63
2021/08/02 01:20:51;;;;;;;5.88;4.38;;;;;;;17.03;67.93;100042.94;4903679;28;106909;-67
2021/08/02 01:23:18;;;;;;;4.97;4.50;;;;;;;17.03;67.71;100042.13;4904281;28;98258;-67
2021/08/02 01:25:44;;;;;;;4.85;4.45;;;;;;;17.00;67.75;100040.84;4885700;28;98485;-63
2021/08/02 01:28:16;;;;;;;5.40;4.60;;;;;;;16.97;67.57;100038.75;4903216;28;98051;-63
2021/08/02 01:30:49;;;;;;;5.85;4.43;;;;;;;16.96;67.74;100041.81;4903429;28;98080;-67
2021/08/02 01:33:28;;;;;;;4.85;4.20;;;;;;;16.92;68.03;100044.38;4902867;28;112854;-63
2021/08/02 01:35:57;;;;;;;4.85;4.35;;;;;;;16.90;67.99;100031.09;4903186;28;98374;-63
2021/08/02 01:38:25;;;;;;;4.82;4.35;;;;;;;16.87;67.67;100033.63;4900681;28;97873;-67
2021/08/02 01:40:51;;;;;;;5.35;4.63;;;;;;;16.87;67.93;100031.72;4901217;28;98097;-67
2021/08/02 01:43:17;;;;;;;5.30;4.68;;;;;;;16.85;67.98;100020.34;4902757;28;99724;-67
2021/08/02 01:45:59;;;;;;;5.10;4.60;;;;;;;16.82;67.70;100028.34;4902092;28;127845;-63
2021/08/02 01:48:52;;;;;;;6.13;4.53;;;;;;;16.79;68.02;100029.00;4901455;28;98125;-63
2021/08/02 01:51:34;;;;;;;5.20;4.38;;;;;;;16.78;67.71;100038.25;4903639;28;97883;-63
2021/08/02 01:54:19;;;;;;;5.78;4.30;;;;;;;16.78;68.11;100035.53;4900484;28;113924;-67
2021/08/02 01:57:06;;;;;;;5.05;4.55;;;;;;;16.77;68.27;100044.81;4903184;28;110795;-63
2021/08/02 02:00:06;;;;;;;5.22;4.72;;;;;;;16.75;68.18;100044.34;4886925;28;98207;-63
2021/08/02 02:02:33;;;;;;;4.80;4.40;;;;;;;16.74;68.33;100051.72;4898466;28;98139;-67
2021/08/02 02:05:07;;;;;;;5.13;4.38;;;;;;;16.71;68.06;100046.88;4867787;28;98214;-63
2021/08/02 02:07:47;;;;;;;5.60;4.13;;;;;;;16.70;67.85;100058.88;4900845;28;117209;-68
2021/08/02 02:10:14;;;;;;;5.47;4.85;;;;;;;16.71;68.11;100055.03;4900234;28;97928;-67
2021/08/02 02:12:42;;;;;;;5.47;4.97;;;;;;;16.69;68.40;100052.63;4901320;28;97904;-63
2021/08/02 02:15:09;;;;;;;5.70;4.63;;;;;;;16.68;68.28;100066.56;4901801;28;116333;-67
2021/08/02 02:17:36;;;;;;;5.82;5.22;;;;;;;16.66;68.30;100064.16;4900514;28;116303;-63
2021/08/02 02:20:03;;;;;;;5.63;4.95;;;;;;;16.65;68.32;100073.44;4901893;28;98224;-68
2021/08/02 02:22:29;;;;;;;5.60;5.10;;;;;;;16.64;68.38;100082.72;4903227;28;97903;-67
2021/08/02 02:24:55;;;;;;;7.40;5.25;;;;;;;16.63;68.56;100075.69;4901856;28;126042;-67
2021/08/02 02:27:21;;;;;;;7.00;5.60;;;;;;;16.63;68.24;100077.59;4883670;28;116738;-63
2021/08/02 02:29:47;;;;;;;5.88;5.07;;;;;;;16.60;68.76;100068.16;4900239;28;97953;-68
2021/08/02 02:32:13;;;;;;;6.32;5.72;;;;;;;16.57;68.49;100067.97;4902630;28;98020;-67
2021/08/02 02:34:39;;;;;;;7.00;6.32;;;;;;;16.56;68.48;100069.09;4867211;28;123160;-67
2021/08/02 02:37:06;;;;;;;6.88;6.15;;;;;;;16.53;68.70;100069.72;4868396;28;98212;-67
2021/08/02 02:39:32;;;;;;;6.38;5.28;;;;;;;16.49;68.99;100074.19;4900179;28;98232;-64
2021/08/02 02:42:00;;;;;;;6.30;5.80;;;;;;;16.47;68.46;100076.44;4868301;28;98231;-64
2021/08/02 02:44:26;;;;;;;6.53;5.80;;;;;;;16.42;68.64;100072.72;4868374;28;98518;-68
2021/08/02 02:46:52;;;;;;;7.72;5.78;;;;;;;16.41;68.57;100065.69;4884239;28;98389;-63
2021/08/02 02:49:18;;;;;;;7.00;5.88;;;;;;;16.40;68.90;100071.47;4883361;28;127674;-63
2021/08/02 02:51:44;;;;;;;6.20;5.60;;;;;;;16.40;69.01;100071.47;4883430;28;118219;-67
2021/08/02 02:54:10;;;;;;;7.32;5.38;;;;;;;16.39;69.03;100070.66;4866498;28;130155;-63
2021/08/02 02:56:36;;;;;;;6.07;5.47;;;;;;;16.39;68.87;100078.03;4905465;28;98883;-63
2021/08/02 02:59:03;;;;;;;6.60;5.90;;;;;;;16.38;69.06;100076.41;4899881;28;98252;-63
2021/08/02 03:01:45;;;;;;;5.90;5.25;;;;;;;16.37;69.05;100080.25;4900189;28;98292;-67
2021/08/02 03:04:11;;;;;;;6.53;5.05;;;;;;;16.35;69.35;100079.78;4900674;28;98841;-63
2021/08/02 03:06:38;;;;;;;6.85;5.50;;;;;;;16.37;68.95;100082.97;4899391;28;98768;-63
2021/08/02 03:09:04;;;;;;;7.07;5.70;;;;;;;16.36;68.83;100086.81;4883523;28;98965;-67
2021/08/02 03:11:30;;;;;;;6.22;5.63;;;;;;;16.38;69.02;100092.72;4902119;28;97813;-63
2021/08/02 03:13:56;;;;;;;6.72;6.13;;;;;;;16.37;69.39;100091.13;4915268;28;122390;-63
2021/08/02 03:16:25;;;;;;;6.00;5.38;;;;;;;16.36;68.96;100093.03;4900994;28;128650;-67
2021/08/02 03:18:52;;;;;;;7.28;6.05;;;;;;;16.35;68.86;100098.81;4904699;28;97846;-63
2021/08/02 03:21:18;;;;;;;6.85;6.25;;;;;;;16.34;69.40;100103.41;4904458;28;119232;-67
2021/08/02 03:24:11;;;;;;;9.30;5.97;;;;;;;16.31;68.75;100117.66;4904725;28;112009;-63
2021/08/02 03:26:43;;;;;;;6.35;5.75;;;;;;;16.30;69.31;100118.75;4902889;28;98152;-67
2021/08/02 03:29:29;;;;;;;7.03;5.60;;;;;;;16.30;69.29;100120.69;4887558;28;98129;-63
2021/08/02 03:31:59;;;;;;;6.53;5.93;;;;;;;16.30;69.35;100129.63;4903027;28;98167;-63
2021/08/02 03:34:28;;;;;;;8.77;5.88;;;;;;;16.31;69.32;100128.53;4904240;28;99021;-67
2021/08/02 03:36:54;;;;;;;5.40;4.90;;;;;;;16.34;69.67;100136.06;4887352;28;98028;-63
2021/08/02 03:39:21;;;;;;;7.50;5.45;;;;;;;16.36;69.37;100136.56;4901662;28;127449;-63
2021/08/02 03:41:47;;;;;;;6.80;5.68;;;;;;;16.38;69.71;100141.66;4886697;28;109772;-63
2021/08/02 03:44:13;;;;;;;7.15;6.55;;;;;;;16.41;69.49;100150.00;4901399;28;128048;-67
2021/08/02 03:46:40;;;;;;;7.43;5.70;;;;;;;16.41;69.60;100152.72;4902571;28;110335;-67
2021/08/02 03:49:06;;;;;;;8.23;6.18;;;;;;;16.44;69.68;100160.28;4904226;28;120100;-63
2021/08/02 03:51:44;;;;;;;7.63;6.53;;;;;;;16.45;70.03;100163.78;4902871;28;105184;-63
2021/08/02 03:54:11;;;;;;;7.47;5.95;;;;;;;16.47;69.49;100158.06;4904629;28;100122;-67
2021/08/02 03:56:37;;;;;;;7.05;6.35;;;;;;;16.48;69.92;100165.88;4904629;28;112615;-67
2021/08/02 03:59:03;;;;;;;6.22;5.63;;;;;;;16.50;70.23;100163.63;4902261;28;106000;-63
2021/08/02 04:01:29;;;;;;;6.97;6.00;;;;;;;16.53;69.92;100165.75;4903623;28;117187;-67
2021/08/02 04:03:55;;;;;;;9.18;6.40;;;;;;;16.54;69.74;100174.69;4886312;28;115930;-63
2021/08/02 04:06:21;;;;;;;7.00;6.30;;;;;;;16.55;69.92;100179.84;4903747;28;128182;-67
2021/08/02 04:08:48;;;;;;;6.35;5.65;;;;;;;16.56;69.85;100184.16;4903536;28;124702;-67
2021/08/02 04:11:14;;;;;;;8.13;6.32;;;;;;;16.58;70.48;100179.19;4904459;28;97731;-68
2021/08/02 04:13:40;;;;;;;8.85;6.93;;;;;;;16.57;70.42;100172.16;4886810;28;98081;-63
2021/08/02 04:16:06;;;;;;;8.85;7.95;;;;;;;16.56;70.65;100178.72;4903004;28;117871;-64
2021/08/02 04:18:32;;;;;;;7.47;6.78;;;;;;;16.56;70.80;100181.44;4900937;28;126574;-67
2021/08/02 04:20:58;;;;;;;6.80;5.75;;;;;;;16.55;71.04;100177.13;4902151;28;98141;-69
2021/08/02 04:23:24;;;;;;;7.75;6.95;;;;;;;16.55;70.94;100181.78;4905218;28;98338;-62
2021/08/02 04:25:50;;;;;;;7.85;5.70;;;;;;;16.52;71.12;100185.09;4903360;28;112597;-64
2021/08/02 04:28:16;;;;;;;6.28;5.18;;;;;;;16.50;71.45;100184.59;4901353;28;97951;-67
2021/08/02 04:30:42;;;;;;;5.57;5.07;;;;;;;16.48;71.07;100195.81;4885295;28;98400;-67
2021/08/02 04:33:08;;;;;;;5.35;4.85;;;;;;;16.46;71.52;100200.75;4903708;28;98272;-67
2021/08/02 04:35:34;;;;;;;7.18;5.32;;;;;;;16.46;71.56;100198.03;4902247;28;128489;-64
2021/08/02 04:38:01;;;;;;;6.05;5.20;;;;;;;16.50;71.70;100201.72;4904201;28;98096;-63
2021/08/02 04:40:27;;;;;;;6.95;5.03;;;;;;;16.57;71.56;100198.56;4904428;28;97844;-64
2021/08/02 04:42:53;;;;;;;6.47;5.05;;;;;;;16.63;71.37;100195.41;4903322;28;127762;-67
2021/08/02 04:45:19;;;;;;;5.00;4.60;;;;;;;16.71;71.46;100199.28;4902611;28;113679;-63
2021/08/02 04:47:45;;;;;;;6.25;4.43;;;;;;;16.78;71.57;100204.28;4900523;28;126621;-67
2021/08/02 04:50:11;;;;;;;4.93;4.35;;;;;;;16.85;71.37;100204.63;4913489;28;115886;-63
2021/08/02 04:52:37;;;;;;;5.72;4.60;;;;;;;16.89;70.92;100211.84;4882845;28;106139;-67
2021/08/02 04:55:03;;;;;;;5.88;4.65;;;;;;;16.95;71.01;100204.34;4897650;28;103630;-67
2021/08/02 04:57:30;;;;;;;5.78;5.10;;;;;;;17.00;70.58;100211.56;4898255;28;98443;-67
2021/08/02 04:59:56;;;;;;;6.15;4.65;;;;;;;17.05;70.64;100227.75;4899601;28;119099;-63
2021/08/02 05:02:22;;;;;;;5.18;4.68;;;;;;;17.08;70.44;100214.28;4900069;28;98666;-67
2021/08/02 05:04:48;;;;;;;5.00;4.53;;;;;;;17.17;70.43;100217.03;4897762;28;108077;-67
2021/08/02 05:07:14;;;;;;;5.60;4.35;;;;;;;17.26;70.02;100219.81;4901171;28;107924;-63
2021/08/02 05:09:40;;;;;;;5.50;4.47;;;;;;;17.31;69.73;100215.00;4902629;28;117257;-63
2021/08/02 05:12:06;;;;;;;5.30;4.80;;;;;;;17.40;69.98;100218.50;4900638;28;127133;-67
2021/08/02 05:14:32;;;;;;;5.75;4.38;;;;;;;17.46;69.71;100215.66;4900854;28;98731;-66
2021/08/02 05:16:58;;;;;;;5.38;4.53;;;;;;;17.48;69.30;100227.03;4902780;28;126043;-67
2021/08/02 05:19:24;;;;;;;4.95;4.15;;;;;;;17.50;69.86;100219.34;4902612;28;118778;-65
2021/08/02 05:21:51;;;;;;;6.43;4.13;;;;;;;17.51;69.66;100218.22;4901531;28;126568;-67
2021/08/02 05:24:17;;;;;;;6.10;3.67;;;;;;;17.53;69.53;100226.88;4901656;28;127667;-67
2021/08/02 05:26:43;;;;;;;5.40;4.07;;;;;;;17.53;69.78;100226.88;4901829;28;127461;-67
2021/08/02 05:29:09;;;;;;;5.25;3.95;;;;;;;17.53;69.76;100232.34;4903599;28;98318;-67
2021/08/02 05:31:35;;;;;;;5.05;3.90;;;;;;;17.50;69.62;100228.31;4900002;28;128419;-67
2021/08/02 05:34:01;;;;;;;4.15;3.75;;;;;;;17.49;69.71;100226.72;4902075;28;127775;-63
2021/08/02 05:36:28;;;;;;;6.57;4.07;;;;;;;17.51;69.62;100240.03;4901571;28;127957;-63
2021/08/02 05:38:54;;;;;;;4.53;4.13;;;;;;;17.52;69.78;100233.44;4899720;28;117589;-67
2021/08/02 05:41:20;;;;;;;4.13;3.70;;;;;;;17.55;69.53;100233.59;4883256;28;126187;-67
2021/08/02 05:43:46;;;;;;;5.45;3.58;;;;;;;17.58;69.86;100235.69;4902470;28;98333;-67
2021/08/02 05:46:12;;;;;;;5.47;4.03;;;;;;;17.59;69.69;100237.28;4900809;28;98461;-63
2021/08/02 05:48:38;;;;;;;5.43;4.35;;;;;;;17.61;69.09;100247.91;4886766;28;97744;-66
2021/08/02 05:51:05;;;;;;;4.47;3.75;;;;;;;17.62;69.28;100239.38;4899140;28;126542;-67
2021/08/02 05:53:31;;;;;;;4.30;3.88;;;;;;;17.66;69.17;100239.56;4902772;28;99245;-63
2021/08/02 05:55:57;;;;;;;4.32;3.92;;;;;;;17.73;69.04;100247.25;4902182;28;97918;-63
2021/08/02 05:58:23;;;;;;;4.22;3.80;;;;;;;17.84;68.80;100243.09;4902864;28;117460;-67
2021/08/02 06:00:49;;;;;;;4.45;3.72;;;;;;;17.92;68.69;100247.78;4902297;28;104106;-63
2021/08/02 06:03:15;;;;;;;4.30;3.90;;;;;;;17.94;68.43;100241.97;4902197;28;127906;-67
2021/08/02 06:05:41;;;;;;;5.53;4.28;;;;;;;17.94;68.90;100245.50;4901533;28;126991;-66
2021/08/02 06:08:07;;;;;;;4.70;4.20;;;;;;;17.98;68.58;100245.66;4902287;28;116610;-66
2021/08/02 06:10:33;;;;;;;4.38;3.90;;;;;;;18.10;68.42;100246.63;4901401;28;127821;-66
2021/08/02 06:12:59;;;;;;;4.28;3.88;;;;;;;18.26;68.13;100251.56;4902599;28;98198;-66
2021/08/02 06:15:25;;;;;;;4.75;4.25;;;;;;;18.32;67.98;100251.09;4900734;28;126599;-63
2021/08/02 06:17:51;;;;;;;5.53;4.32;;;;;;;18.30;67.94;100256.03;4901443;28;107016;-63
2021/08/02 06:20:17;;;;;;;5.43;4.30;;;;;;;18.27;68.01;100248.50;4897561;28;125089;-67
2021/08/02 06:22:43;;;;;;;5.18;4.60;;;;;;;18.28;67.52;100255.59;4899550;28;98681;-63
2021/08/02 06:25:09;;;;;;;4.35;3.95;;;;;;;18.22;68.31;100254.13;4902012;28;97988;-63
2021/08/02 06:27:35;;;;;;;5.32;4.50;;;;;;;18.11;68.16;100253.66;4901040;28;106504;-66
2021/08/02 06:30:02;;;;;;;5.72;4.72;;;;;;;18.06;69.06;100261.22;4901698;28;128014;-63
2021/08/02 06:32:28;;;;;;;5.18;4.78;;;;;;;18.07;68.67;100269.06;4901588;28;98867;-63
2021/08/02 06:34:54;;;;;;;5.03;4.20;;;;;;;18.21;68.06;100263.47;4901929;28;98326;-63
2021/08/02 06:37:22;;;;;;;5.38;4.50;;;;;;;18.38;67.73;100268.06;4900718;28;97890;-67
2021/08/02 06:39:48;;;;;;;5.22;4.72;;;;;;;18.54;67.20;100265.63;4900528;28;98542;-64
2021/08/02 06:42:14;;;;;;;4.85;4.45;;;;;;;18.52;67.32;100263.22;4901104;28;116603;-67
2021/08/02 06:44:41;;;;;;;4.80;4.30;;;;;;;18.43;67.83;100272.56;4901982;28;98169;-67
2021/08/02 06:47:08;;;;;;;5.03;4.50;;;;;;;18.48;68.06;100265.00;4899733;28;97964;-63
2021/08/02 06:49:34;;;;;;;4.70;4.25;;;;;;;18.76;66.99;100276.34;4901452;28;98337;-63
2021/08/02 06:52:00;;;;;;;5.05;4.55;;;;;;;18.92;66.64;100270.34;4900387;28;126269;-67
2021/08/02 06:54:26;;;;;;;5.80;4.55;;;;;;;19.23;65.54;100270.03;4900684;28;124507;-67
2021/08/02 06:56:52;;;;;;;4.82;4.35;;;;;;;19.77;64.89;100268.28;4900687;28;115825;-64
2021/08/02 06:59:18;;;;;;;4.30;3.90;;;;;;;20.67;62.80;100263.25;4898874;28;126925;-64
2021/08/02 07:01:44;;;;;;;4.53;4.07;;;;;;;20.70;62.84;100282.53;4900054;28;127016;-64
2021/08/02 07:04:10;;;;;;;5.38;4.88;;;;;;;20.47;63.19;100276.63;4901870;28;97979;-68
2021/08/02 07:06:40;;;;;;;5.43;4.57;;;;;;;20.29;63.65;100269.75;4902317;28;105780;-67
2021/08/02 07:09:07;;;;;;;5.18;4.68;;;;;;;20.19;64.06;100284.63;4901850;28;97830;-64
2021/08/02 07:11:33;;;;;;;5.30;4.70;;;;;;;20.09;64.01;100280.41;4901943;28;110471;-64
2021/08/02 07:13:59;;;;;;;6.32;4.70;;;;;;;19.97;64.22;100285.00;4899900;28;128258;-67
2021/08/02 07:16:25;;;;;;;5.90;5.40;;;;;;;19.81;64.66;100287.56;4901953;28;98493;-64
2021/08/02 07:18:52;;;;;;;5.65;5.15;;;;;;;19.72;64.62;100290.31;4892276;28;119189;-63
2021/08/02 07:21:19;;;;;;;5.60;4.97;;;;;;;19.63;64.96;100297.00;4882296;28;98027;-67
2021/08/02 07:23:45;;;;;;;5.93;5.43;;;;;;;19.66;64.72;100299.06;4891651;28;98327;-67
2021/08/02 07:26:11;;;;;;;5.78;5.05;;;;;;;19.84;64.49;100298.59;4900622;28;119505;-67
2021/08/02 07:28:37;;;;;;;5.63;5.13;;;;;;;20.09;63.92;100294.06;4901908;28;98561;-67
2021/08/02 07:31:04;;;;;;;6.40;5.28;;;;;;;20.07;63.76;100296.31;4898197;28;127822;-64
2021/08/02 07:33:30;;;;;;;6.82;5.60;;;;;;;20.01;64.18;100297.69;4880043;28;116321;-68
2021/08/02 07:35:56;;;;;;;6.00;5.45;;;;;;;19.89;64.38;100305.81;4901880;28;103893;-64
2021/08/02 07:38:22;;;;;;;5.50;5.00;;;;;;;19.80;64.63;100297.66;4899804;28;99140;-64
2021/08/02 07:40:49;;;;;;;5.80;5.25;;;;;;;19.93;64.30;100311.44;4899774;28;119559;-67
2021/08/02 07:43:15;;;;;;;5.28;4.80;;;;;;;20.46;62.97;100309.81;4901586;28;98743;-64
2021/08/02 07:45:41;;;;;;;5.13;4.63;;;;;;;20.80;62.19;100306.75;4899273;28;98568;-67
2021/08/02 07:48:07;;;;;;;4.40;2.75;;;;;;;20.95;60.70;100304.50;4900689;28;126843;-67
2021/08/02 07:50:33;;;;;;;7.53;2.55;;;;;;;21.19;59.16;100317.41;4881678;28;128370;-67
2021/08/02 07:52:59;;;;;;;7.68;1.90;;;;;;;21.23;58.04;100318.34;4899991;28;98139;-67
2021/08/02 07:55:25;;;;;;;6.55;1.48;;;;;;;21.15;58.36;100319.25;4883200;28;97911;-67
2021/08/02 07:57:51;;;;;;;12.10;1.88;;;;;;;21.12;58.16;100311.69;4899102;28;104542;-67
2021/08/02 08:00:18;;;;;;;44.38;5.75;;;;;;;21.26;57.67;100318.44;4900428;28;126278;-67
2021/08/02 08:02:47;;;;;;;11.00;1.50;;;;;;;21.45;56.78;100314.34;4902277;28;98246;-67
2021/08/02 08:05:14;;;;;;;3.03;0.90;;;;;;;21.49;56.06;100316.03;4904674;28;98148;-67
2021/08/02 08:07:51;;;;;;;1.45;0.70;;;;;;;21.66;55.61;100317.75;4904752;28;101307;-64
2021/08/02 08:10:19;;;;;;;1.80;0.80;;;;;;;21.76;54.33;100321.97;4904442;28;98564;-68
2021/08/02 08:12:45;;;;;;;1.33;0.70;;;;;;;21.68;54.49;100323.69;4902980;28;109131;-68
2021/08/02 08:15:11;;;;;;;2.35;0.80;;;;;;;21.72;54.61;100323.78;4904319;28;98059;-64
2021/08/02 08:17:38;;;;;;;1.60;0.73;;;;;;;21.62;54.95;100321.53;4903374;28;119273;-64
2021/08/02 08:20:05;;;;;;;24.17;2.35;;;;;;;21.49;54.78;100316.03;4903753;28;105293;-64
2021/08/02 08:22:31;;;;;;;4.07;1.30;;;;;;;21.31;55.42;100329.19;4904302;28;99014;-68
2021/08/02 08:24:58;;;;;;;2.40;1.13;;;;;;;21.22;55.73;100320.28;4903275;28;97875;-64
2021/08/02 08:27:24;;;;;;;2.30;1.05;;;;;;;21.27;55.17;100325.53;4903853;28;98382;-64
2021/08/02 08:29:50;;;;;;;2.10;1.20;;;;;;;21.32;55.56;100325.31;4885559;28;128386;-67
2021/08/02 08:32:16;;;;;;;2.20;1.10;;;;;;;21.26;55.06;100328.59;4901395;28;127478;-64
2021/08/02 08:34:42;;;;;;;2.72;1.23;;;;;;;21.47;55.22;100318.34;4901916;28;117960;-64
2021/08/02 08:37:08;;;;;;;2.85;1.42;;;;;;;21.47;55.58;100323.03;4901793;28;117499;-65
2021/08/02 08:39:34;;;;;;;2.42;1.23;;;;;;;21.62;55.18;100329.78;4903489;28;103171;-64
2021/08/02 08:42:00;;;;;;;2.42;1.50;;;;;;;21.59;55.27;100323.03;4902950;28;128337;-64
2021/08/02 08:44:29;;;;;;;2.55;1.42;;;;;;;21.98;54.50;100332.44;4901369;28;118699;-65
2021/08/02 08:46:56;;;;;;;2.13;1.60;;;;;;;22.60;52.90;100327.53;4885313;28;98560;-67
2021/08/02 08:49:22;;;;;;;3.28;1.55;;;;;;;23.59;50.70;100331.19;4903621;28;98781;-64
2021/08/02 08:51:48;;;;;;;2.35;1.30;;;;;;;24.31;49.29;100329.97;4901284;28;98499;-65
2021/08/02 08:54:14;;;;;;;2.30;1.90;;;;;;;24.67;49.05;100342.50;4884840;28;116482;-68
2021/08/02 08:56:41;;;;;;;2.75;1.70;;;;;;;26.08;45.59;100330.53;4902481;28;126783;-67
2021/08/02 08:59:13;;;;;;;2.63;1.80;;;;;;;24.79;48.71;100334.03;4902444;28;127999;-64
2021/08/02 09:01:39;;;;;;;2.42;1.77;;;;;;;24.34;49.24;100343.81;4902769;28;98588;-67
2021/08/02 09:04:05;;;;;;;3.83;2.00;;;;;;;26.22;44.91;100333.50;4901134;28;104487;-64
2021/08/02 09:06:44;;;;;;;1.90;1.60;;;;;;;26.53;44.23;100339.78;4901459;28;98605;-68
2021/08/02 09:09:10;;;;;;;3.92;1.58;;;;;;;28.31;40.80;100337.53;4901504;28;98021;-64
2021/08/02 09:11:36;;;;;;;3.10;1.50;;;;;;;27.81;40.94;100338.09;4900259;28;126878;-67
2021/08/02 09:14:10;;;;;;;1.52;0.85;;;;;;;29.11;39.82;100342.88;4884894;28;117877;-65
2021/08/02 09:16:37;;;;;;;1.42;0.70;;;;;;;30.27;36.36;100333.94;4901651;28;98497;-65
2021/08/02 09:19:07;;;;;;;1.85;0.82;;;;;;;29.73;37.20;100342.44;4885298;28;98514;-65
2021/08/02 09:21:48;;;;;;;1.75;0.90;;;;;;;32.51;34.23;100344.22;4902948;28;98276;-68
2021/08/02 09:24:15;;;;;;;1.45;0.57;;;;;;;33.01;32.03;100340.69;4903501;28;97696;-67
2021/08/02 09:26:42;;;;;;;1.77;0.73;;;;;;;33.17;31.86;100340.84;4902825;28;98242;-68
2021/08/02 09:29:11;;;;;;;3.05;0.70;;;;;;;32.66;32.08;100333.63;4902592;28;97899;-63
2021/08/02 09:31:38;;;;;;;2.25;0.57;;;;;;;31.32;33.45;100321.69;4903025;28;98067;-63
2021/08/02 09:34:08;;;;;;;2.03;0.70;;;;;;;30.51;35.12;100330.22;4903178;28;98028;-63
2021/08/02 09:36:38;;;;;;;1.88;0.80;;;;;;;30.11;34.85;100320.47;4902810;28;105486;-66
2021/08/02 09:39:09;;;;;;;1.65;0.93;;;;;;;31.02;32.74;100322.34;4901581;28;98735;-63
2021/08/02 09:41:36;;;;;;;2.72;0.80;;;;;;;30.72;33.07;100323.72;4885593;28;98125;-65
2021/08/02 09:44:03;;;;;;;1.65;0.75;;;;;;;32.81;30.12;100312.69;4902019;28;97806;-66
2021/08/02 09:46:29;;;;;;;1.45;0.82;;;;;;;34.58;28.02;100325.69;4901829;28;119021;-65
2021/08/02 09:49:02;;;;;;;1.83;0.85;;;;;;;35.30;28.43;100317.16;4898358;28;98560;-66
2021/08/02 09:51:33;;;;;;;2.05;0.70;;;;;;;36.50;25.87;100324.59;4905522;28;97826;-63
2021/08/02 09:53:59;;;;;;;2.10;0.60;;;;;;;36.37;25.86;100319.72;4886384;28;97806;-63
2021/08/02 09:56:25;;;;;;;1.38;0.85;;;;;;;34.93;27.36;100296.06;4902013;28;127451;-63
2021/08/02 09:58:51;;;;;;;1.20;0.70;;;;;;;37.01;25.50;100319.72;4902179;28;118638;-65
2021/08/02 10:01:19;;;;;;;2.22;0.70;;;;;;;36.19;26.11;100307.47;4900745;28;127923;-63
2021/08/02 10:03:45;;;;;;;1.50;0.60;;;;;;;34.26;28.40;100302.03;4903375;28;97819;-66
2021/08/02 10:06:15;;;;;;;1.27;0.70;;;;;;;37.26;25.49;100310.47;4900592;28;98042;-63
2021/08/02 10:08:41;;;;;;;2.38;0.77;;;;;;;37.94;23.88;100315.69;4868934;28;99735;-63
2021/08/02 10:11:07;;;;;;;2.20;0.80;;;;;;;38.87;22.88;100315.66;4883825;28;108615;-66
2021/08/02 10:13:42;;;;;;;1.65;0.77;;;;;;;38.89;23.83;100315.19;4902475;28;104333;-66
2021/08/02 10:16:12;;;;;;;1.20;0.60;;;;;;;37.80;24.27;100309.31;4899940;28;98149;-66
2021/08/02 10:18:39;;;;;;;1.23;0.80;;;;;;;37.90;23.94;100309.41;4885740;28;105440;-68
2021/08/02 10:21:08;;;;;;;3.88;0.70;;;;;;;39.02;22.42;100298.94;4899887;28;112752;-63
2021/08/02 10:23:35;;;;;;;2.40;1.00;;;;;;;39.36;21.66;100308.38;4899462;28;101868;-66
2021/08/02 10:26:01;;;;;;;1.25;0.80;;;;;;;37.51;22.94;100306.00;4901424;28;106603;-66
2021/08/02 10:28:27;;;;;;;1.10;0.60;;;;;;;35.05;25.25;100294.59;4900957;28;98731;-66
2021/08/02 10:31:07;;;;;;;1.33;0.70;;;;;;;33.17;28.20;100300.94;4900065;28;98162;-64
2021/08/02 10:33:37;;;;;;;3.83;0.70;;;;;;;31.86;29.49;100291.28;4900941;28;97832;-64
2021/08/02 10:36:13;;;;;;;3.13;0.97;;;;;;;30.52;31.08;100286.53;4901458;28;112041;-63
2021/08/02 10:38:41;;;;;;;2.08;0.60;;;;;;;29.68;31.94;100300.41;4901249;28;98165;-66
2021/08/02 10:41:07;;;;;;;1.20;0.80;;;;;;;28.90;33.20;100304.81;4901107;28;98219;-66
2021/08/02 10:43:38;;;;;;;2.85;0.80;;;;;;;29.10;33.06;100294.91;4900347;28;107167;-67
2021/08/02 10:46:27;;;;;;;1.90;1.10;;;;;;;31.14;30.49;100296.00;4901327;28;98046;-65
2021/08/02 10:49:14;;;;;;;2.15;1.20;;;;;;;30.92;30.81;100301.75;4901451;28;98303;-69
2021/08/02 10:51:51;;;;;;;2.75;2.53;;;;;;;30.17;32.71;100299.44;4900189;28;98171;-69
2021/08/02 10:54:18;;;;;;;1.67;1.02;;;;;;;29.88;32.50;100297.97;4901012;28;97870;-65
2021/08/02 10:56:50;;;;;;;2.10;0.88;;;;;;;30.18;31.72;100289.88;4902224;28;98668;-69
2021/08/02 10:59:20;;;;;;;2.33;0.93;;;;;;;28.86;33.40;100299.25;4902094;28;98589;-69
2021/08/02 11:01:48;;;;;;;2.08;0.98;;;;;;;30.14;31.61;100288.28;4931730;28;98199;-66
2021/08/02 11:04:14;;;;;;;1.75;1.05;;;;;;;31.14;31.14;100290.44;4915800;28;97995;-69
2021/08/02 11:06:40;;;;;;;2.47;0.77;;;;;;;32.52;28.89;100295.59;4900812;28;98494;-69
2021/08/02 11:09:06;;;;;;;2.45;0.80;;;;;;;33.46;27.79;100302.03;4900993;28;124240;-69
2021/08/02 11:11:34;;;;;;;1.75;0.70;;;;;;;34.14;27.04;100292.28;4899714;28;128292;-69
2021/08/02 11:14:08;;;;;;;1.45;0.70;;;;;;;34.81;26.30;100299.56;4883721;28;97774;-69
2021/08/02 11:16:46;;;;;;;1.58;0.52;;;;;;;33.41;27.90;100296.16;4881849;28;100028;-66
2021/08/02 11:19:23;;;;;;;5.43;0.50;;;;;;;33.03;28.25;100296.41;4896902;28;97978;-66
2021/08/02 11:22:01;;;;;;;1.55;0.60;;;;;;;32.48;28.57;100298.44;4883927;28;98224;-71
2021/08/02 11:24:38;;;;;;;2.17;0.80;;;;;;;32.82;28.56;100293.97;4882483;28;97776;-68
2021/08/02 11:27:08;;;;;;;1.88;0.50;;;;;;;32.23;28.77;100300.78;4882033;28;98304;-69
2021/08/02 11:29:39;;;;;;;1.63;0.60;;;;;;;33.44;26.72;100295.25;4879854;28;98862;-65